Time;durP1;ratioP1;P1;durP2;ratioP2;P2;SDS_P1;SDS_P2;PMS_P1;PMS_P2;Temp;Humidity;BMP_temperature;BMP_pressure;BME280_temperature;BME280_humidity;BME280_pressure;Samples;Min_cycle;Max_cycle;Signal;HPM_P1;HPM_P2
2022/01/01 00:02:20;;;;;;;;;;;13.50;1.00;;;;;;5078152;28;20391;-80
2022/01/01 00:04:47;;;;;;;;;;;13.50;1.00;;;;;;5072270;28;19984;-80
2022/01/01 00:07:13;;;;;;;;;;;13.50;1.00;;;;;;5067286;28;19934;-80
2022/01/01 00:09:38;;;;;;;;;;;13.50;1.00;;;;;;5068133;28;19992;-80
2022/01/01 00:12:04;;;;;;;;;;;13.50;1.00;;;;;;5064497;28;19912;-80
2022/01/01 00:14:30;;;;;;;;;;;13.50;1.00;;;;;;5076749;28;19920;-80
2022/01/01 00:16:56;;;;;;;;;;;13.50;1.00;;;;;;5081023;28;19915;-80
2022/01/01 00:19:21;;;;;;;;;;;13.40;1.00;;;;;;5061600;28;19913;-79
2022/01/01 00:21:47;;;;;;;;;;;13.50;1.00;;;;;;5083248;28;20289;-79
2022/01/01 00:24:12;;;;;;;;;;;13.50;1.00;;;;;;5084431;28;19936;-79
2022/01/01 00:26:38;;;;;;;;;;;13.50;1.00;;;;;;5072323;28;19916;-79
2022/01/01 00:29:04;;;;;;;;;;;13.50;1.00;;;;;;5077380;28;19913;-79
2022/01/01 00:31:29;;;;;;;;;;;13.50;1.00;;;;;;5052730;28;19924;-80
2022/01/01 00:33:55;;;;;;;;;;;13.50;1.00;;;;;;5063824;28;20308;-80
2022/01/01 00:36:20;;;;;;;;;;;13.50;1.00;;;;;;5064981;28;19936;-80
2022/01/01 00:38:46;;;;;;;;;;;13.50;1.00;;;;;;5073909;28;19913;-80
2022/01/01 00:41:11;;;;;;;;;;;13.60;1.00;;;;;;5078880;28;19908;-79
2022/01/01 00:43:37;;;;;;;;;;;13.40;1.00;;;;;;5082506;28;19959;-80
2022/01/01 00:46:02;;;;;;;;;;;13.50;1.00;;;;;;5061145;28;20363;-81
2022/01/01 00:48:28;;;;;;;;;;;13.50;1.00;;;;;;5067816;28;19916;-80
2022/01/01 00:50:53;;;;;;;;;;;13.50;1.00;;;;;;5064224;28;19908;-80
2022/01/01 00:53:19;;;;;;;;;;;13.50;1.00;;;;;;5058722;28;19909;-80
2022/01/01 00:55:44;;;;;;;;;;;13.50;1.00;;;;;;5073456;28;19912;-80
2022/01/01 00:58:09;;;;;;;;;;;13.50;1.00;;;;;;5063989;28;19975;-80
2022/01/01 01:00:35;;;;;;;;;;;13.50;1.00;;;;;;5081825;28;19935;-80
2022/01/01 01:03:06;;;;;;;;;;;13.50;1.00;;;;;;5055448;28;19908;-80
2022/01/01 01:05:32;;;;;;;;;;;13.50;1.00;;;;;;5081249;28;19917;-80
2022/01/01 01:07:57;;;;;;;;;;;13.50;1.00;;;;;;5078951;28;20388;-81
2022/01/01 01:10:23;;;;;;;;;;;13.50;1.00;;;;;;5066402;28;19972;-81
2022/01/01 01:12:48;;;;;;;;;;;13.50;1.00;;;;;;5062662;28;19919;-81
2022/01/01 01:15:18;;;;;;;;;;;13.40;1.00;;;;;;5063136;28;19919;-81
2022/01/01 01:17:47;;;;;;;;;;;13.50;1.00;;;;;;5063793;28;19953;-80
2022/01/01 01:20:13;;;;;;;;;;;13.50;1.00;;;;;;5070206;28;20346;-80
2022/01/01 01:22:39;;;;;;;;;;;13.50;1.00;;;;;;5060113;28;19909;-80
2022/01/01 01:25:04;;;;;;;;;;;13.50;1.00;;;;;;5070962;28;19923;-81
2022/01/01 01:27:30;;;;;;;;;;;13.50;1.00;;;;;;5078853;28;19960;-80
2022/01/01 01:29:58;;;;;;;;;;;13.50;1.00;;;;;;5079774;28;19919;-80
2022/01/01 01:32:24;;;;;;;;;;;13.50;1.00;;;;;;5079937;28;20042;-80
2022/01/01 01:34:49;;;;;;;;;;;13.50;1.00;;;;;;5058580;28;19948;-80
2022/01/01 01:37:15;;;;;;;;;;;13.50;1.00;;;;;;5062452;28;20498;-81
2022/01/01 01:39:40;;;;;;;;;;;13.60;1.00;;;;;;5078955;28;19948;-81
2022/01/01 01:42:06;;;;;;;;;;;13.50;1.00;;;;;;5062183;28;19912;-80
2022/01/01 01:44:34;;;;;;;;;;;13.50;1.00;;;;;;5060492;28;19921;-81
2022/01/01 01:47:02;;;;;;;;;;;13.50;1.00;;;;;;5078026;28;19919;-80
2022/01/01 01:49:28;;;;;;;;;;;13.50;1.00;;;;;;5072486;28;19912;-80
2022/01/01 01:51:53;;;;;;;;;;;13.50;1.00;;;;;;5060365;28;19948;-81
2022/01/01 01:54:20;;;;;;;;;;;13.60;1.00;;;;;;5060979;28;19912;-80
2022/01/01 01:56:46;;;;;;;;;;;13.60;1.00;;;;;;5061167;28;19913;-81
2022/01/01 01:59:12;;;;;;;;;;;13.60;1.00;;;;;;5078855;28;21757;-81
2022/01/01 02:01:37;;;;;;;;;;;13.60;1.00;;;;;;5076136;28;20116;-80
2022/01/01 02:04:03;;;;;;;;;;;13.60;1.00;;;;;;5061250;28;19913;-80
2022/01/01 02:06:28;;;;;;;;;;;13.60;1.00;;;;;;5074363;28;19917;-81
2022/01/01 02:08:54;;;;;;;;;;;13.60;1.00;;;;;;5068244;28;19912;-80
2022/01/01 02:11:21;;;;;;;;;;;13.50;1.00;;;;;;5079686;28;19915;-80
2022/01/01 02:18:54;;;;;;;;;;;13.60;1.00;;;;;;5078209;28;19935;-80
2022/01/01 02:21:20;;;;;;;;;;;13.60;1.00;;;;;;5061249;28;19916;-81
2022/01/01 02:23:47;;;;;;;;;;;13.50;1.00;;;;;;5061678;28;19913;-81
2022/01/01 02:26:15;;;;;;;;;;;13.60;1.00;;;;;;5061922;28;19929;-81
2022/01/01 02:28:41;;;;;;;;;;;13.60;1.00;;;;;;5062003;28;19912;-81
2022/01/01 02:31:07;;;;;;;;;;;13.60;1.00;;;;;;5078063;28;20361;-80
2022/01/01 02:33:32;;;;;;;;;;;13.60;1.00;;;;;;5068710;28;19951;-80
2022/01/01 02:35:58;;;;;;;;;;;13.50;1.00;;;;;;5063467;28;19908;-81
2022/01/01 02:38:23;;;;;;;;;;;13.60;1.00;;;;;;5080625;28;20573;-81
2022/01/01 02:40:49;;;;;;;;;;;13.60;1.00;;;;;;5072653;28;19916;-80
2022/01/01 02:43:16;;;;;;;;;;;13.60;1.00;;;;;;5079282;28;19966;-80
2022/01/01 02:45:42;;;;;;;;;;;13.60;1.00;;;;;;5079891;28;19948;-81
2022/01/01 02:48:07;;;;;;;;;;;13.60;1.00;;;;;;5061444;28;19912;-81
2022/01/01 02:50:32;;;;;;;;;;;13.60;1.00;;;;;;5058183;28;19912;-81
2022/01/01 02:52:58;;;;;;;;;;;13.60;1.00;;;;;;5060067;28;19913;-81
2022/01/01 02:55:23;;;;;;;;;;;13.60;1.00;;;;;;5075485;28;19913;-81
2022/01/01 02:57:49;;;;;;;;;;;13.60;1.00;;;;;;5057395;28;19921;-80
2022/01/01 03:00:14;;;;;;;;;;;13.60;1.00;;;;;;5072186;28;19972;-80
2022/01/01 03:02:40;;;;;;;;;;;13.50;1.00;;;;;;5059795;28;19939;-81
2022/01/01 03:05:06;;;;;;;;;;;13.50;1.00;;;;;;5062733;28;19912;-81
2022/01/01 03:07:34;;;;;;;;;;;13.50;1.00;;;;;;5057358;28;19920;-81
2022/01/01 03:10:00;;;;;;;;;;;13.50;1.00;;;;;;5059628;28;19913;-80
2022/01/01 03:12:25;;;;;;;;;;;13.50;1.00;;;;;;5061588;28;19912;-80
2022/01/01 03:14:51;;;;;;;;;;;13.50;1.00;;;;;;5070130;28;19958;-81
2022/01/01 03:17:16;;;;;;;;;;;13.50;1.00;;;;;;5068889;28;19920;-80
2022/01/01 03:19:42;;;;;;;;;;;13.50;1.00;;;;;;5068450;28;19938;-81
2022/01/01 03:22:07;;;;;;;;;;;13.50;1.00;;;;;;5060011;28;19908;-80
2022/01/01 03:24:33;;;;;;;;;;;13.60;1.00;;;;;;5077448;28;19944;-80
2022/01/01 03:26:59;;;;;;;;;;;13.50;1.00;;;;;;5069237;28;19939;-80
2022/01/01 03:29:30;;;;;;;;;;;13.50;1.00;;;;;;5070701;28;19932;-80
2022/01/01 03:31:55;;;;;;;;;;;13.50;1.00;;;;;;5058638;28;19919;-80
2022/01/01 03:34:21;;;;;;;;;;;13.50;1.00;;;;;;5069356;28;19912;-80
2022/01/01 03:36:47;;;;;;;;;;;13.50;1.00;;;;;;5076880;28;19916;-80
2022/01/01 03:39:12;;;;;;;;;;;13.50;1.00;;;;;;5062646;28;19917;-81
2022/01/01 03:41:38;;;;;;;;;;;13.40;1.00;;;;;;5059299;28;19931;-80
2022/01/01 03:44:03;;;;;;;;;;;13.40;1.00;;;;;;5058746;28;19920;-80
2022/01/01 03:46:29;;;;;;;;;;;13.50;1.00;;;;;;5058856;28;19913;-80
2022/01/01 03:48:54;;;;;;;;;;;13.40;1.00;;;;;;5064840;28;20424;-80
2022/01/01 03:51:20;;;;;;;;;;;13.40;1.00;;;;;;5066091;28;19934;-81
2022/01/01 03:53:45;;;;;;;;;;;13.40;1.00;;;;;;5058045;28;19960;-81
2022/01/01 03:56:11;;;;;;;;;;;13.40;1.00;;;;;;5077057;28;19912;-80
2022/01/01 03:58:37;;;;;;;;;;;13.40;1.00;;;;;;5071021;28;20375;-80
2022/01/01 04:01:02;;;;;;;;;;;13.40;99.90;;;;;;5058949;28;19917;-80
2022/01/01 04:03:27;;;;;;;;;;;13.40;99.90;;;;;;5074908;28;19955;-80
2022/01/01 04:05:53;;;;;;;;;;;13.40;99.90;;;;;;5072999;28;19916;-80
2022/01/01 04:08:18;;;;;;;;;;;13.40;99.90;;;;;;5074260;28;19913;-81
2022/01/01 04:10:44;;;;;;;;;;;13.40;99.90;;;;;;5056111;28;20003;-81
2022/01/01 04:13:10;;;;;;;;;;;13.40;99.90;;;;;;5074868;28;19958;-80
2022/01/01 04:15:36;;;;;;;;;;;13.40;99.90;;;;;;5060217;28;19912;-80
2022/01/01 04:18:07;;;;;;;;;;;13.40;99.90;;;;;;5066620;28;19943;-81
2022/01/01 04:20:32;;;;;;;;;;;13.30;99.90;;;;;;5079321;28;19935;-81
2022/01/01 04:22:58;;;;;;;;;;;13.40;99.90;;;;;;5078154;28;19909;-80
2022/01/01 04:25:24;;;;;;;;;;;13.40;99.90;;;;;;5061108;28;19916;-81
2022/01/01 04:27:50;;;;;;;;;;;13.40;99.90;;;;;;5060375;28;19931;-80
2022/01/01 04:30:16;;;;;;;;;;;13.30;99.90;;;;;;5074241;28;20475;-81
2022/01/01 04:32:41;;;;;;;;;;;13.40;99.90;;;;;;5078605;28;19969;-81
2022/01/01 04:35:07;;;;;;;;;;;13.30;99.90;;;;;;5058649;28;19909;-81
2022/01/01 04:37:33;;;;;;;;;;;13.40;99.90;;;;;;5074151;28;19913;-80
2022/01/01 04:39:59;;;;;;;;;;;13.30;99.90;;;;;;5055013;28;19912;-81
2022/01/01 04:42:28;;;;;;;;;;;13.30;99.90;;;;;;5060960;28;19908;-80
2022/01/01 04:44:54;;;;;;;;;;;13.30;99.90;;;;;;5060400;28;19917;-81
2022/01/01 04:47:19;;;;;;;;;;;13.30;99.90;;;;;;5057776;22;19994;-78
2022/01/01 04:49:45;;;;;;;;;;;13.30;99.90;;;;;;5054161;28;20008;-78
2022/01/01 04:52:10;;;;;;;;;;;13.30;99.90;;;;;;5054419;28;19974;-77
2022/01/01 04:54:40;;;;;;;;;;;13.40;99.90;;;;;;5057039;28;19912;-78
2022/01/01 04:57:05;;;;;;;;;;;13.30;99.90;;;;;;5050531;28;19925;-79
2022/01/01 04:59:31;;;;;;;;;;;13.30;99.90;;;;;;5047693;28;20390;-78
2022/01/01 05:01:56;;;;;;;;;;;13.30;99.90;;;;;;5040799;28;19917;-78
2022/01/01 05:04:22;;;;;;;;;;;13.40;99.90;;;;;;5054239;28;20007;-79
2022/01/01 05:06:49;;;;;;;;;;;13.40;99.90;;;;;;5041131;28;19936;-79
2022/01/01 05:09:21;;;;;;;;;;;13.40;99.90;;;;;;5055839;28;19913;-78
2022/01/01 05:11:47;;;;;;;;;;;13.30;99.90;;;;;;5057042;28;20384;-78
2022/01/01 05:14:13;;;;;;;;;;;13.30;99.90;;;;;;5044998;28;19971;-79
2022/01/01 05:16:39;;;;;;;;;;;13.30;99.90;;;;;;5044744;28;19963;-78
2022/01/01 05:19:05;;;;;;;;;;;13.30;99.90;;;;;;5053778;28;19913;-79
2022/01/01 05:21:33;;;;;;;;;;;13.30;99.90;;;;;;5055855;28;19919;-78
2022/01/01 05:23:59;;;;;;;;;;;13.30;99.90;;;;;;5054365;28;20015;-79
2022/01/01 05:26:24;;;;;;;;;;;13.30;99.90;;;;;;5050307;28;19948;-77
2022/01/01 05:28:50;;;;;;;;;;;13.30;99.90;;;;;;5054996;28;19947;-79
2022/01/01 05:31:16;;;;;;;;;;;13.30;99.90;;;;;;5048577;28;19916;-79
2022/01/01 05:33:42;;;;;;;;;;;13.40;99.90;;;;;;5053832;28;20003;-79
2022/01/01 05:36:07;;;;;;;;;;;13.30;99.90;;;;;;5051728;28;20334;-78
2022/01/01 05:38:33;;;;;;;;;;;13.30;99.90;;;;;;5056569;28;19927;-79
2022/01/01 05:40:58;;;;;;;;;;;13.30;99.90;;;;;;5051365;28;20381;-78
2022/01/01 05:43:24;;;;;;;;;;;13.40;99.90;;;;;;5048009;28;20296;-79
2022/01/01 05:45:50;;;;;;;;;;;13.30;99.90;;;;;;5056958;28;19917;-79
2022/01/01 05:48:15;;;;;;;;;;;13.30;99.90;;;;;;5041869;28;20007;-78
2022/01/01 05:50:41;;;;;;;;;;;13.40;99.90;;;;;;5051618;28;19913;-79
2022/01/01 05:53:06;;;;;;;;;;;13.40;99.90;;;;;;5050497;28;19913;-79
2022/01/01 05:55:32;;;;;;;;;;;13.40;99.90;;;;;;5055534;28;20292;-79
2022/01/01 05:57:57;;;;;;;;;;;13.40;99.90;;;;;;5052303;28;19968;-79
2022/01/01 06:00:23;;;;;;;;;;;13.40;99.90;;;;;;5056203;28;19908;-79
2022/01/01 06:02:48;;;;;;;;;;;13.40;99.90;;;;;;5048962;28;20004;-79
2022/01/01 06:05:14;;;;;;;;;;;13.30;99.90;;;;;;5030186;28;19952;-79
2022/01/01 06:07:39;;;;;;;;;;;13.30;95.10;;;;;;5030140;28;20324;-78
2022/01/01 06:10:05;;;;;;;;;;;13.30;90.00;;;;;;5034503;28;19948;-78
2022/01/01 06:12:30;;;;;;;;;;;13.30;67.80;;;;;;5045740;28;20004;-79
2022/01/01 06:14:56;;;;;;;;;;;13.40;54.80;;;;;;5050388;28;19974;-78
2022/01/01 06:17:21;;;;;;;;;;;13.40;25.20;;;;;;5045176;28;19940;-78
2022/01/01 06:19:47;;;;;;;;;;;13.30;16.80;;;;;;5055376;28;20401;-79
2022/01/01 06:22:13;;;;;;;;;;;13.30;1.00;;;;;;5038238;28;20282;-78
2022/01/01 06:24:39;;;;;;;;;;;13.30;1.00;;;;;;5053794;28;19913;-78
2022/01/01 06:27:04;;;;;;;;;;;13.40;1.00;;;;;;5050831;28;20362;-79
2022/01/01 06:29:30;;;;;;;;;;;13.40;1.00;;;;;;5045186;28;19912;-78
2022/01/01 06:31:55;;;;;;;;;;;13.40;1.00;;;;;;5049088;28;20301;-79
2022/01/01 06:34:21;;;;;;;;;;;13.30;1.00;;;;;;5056986;28;19921;-79
2022/01/01 06:36:46;;;;;;;;;;;13.30;1.00;;;;;;5053660;28;19944;-79
2022/01/01 06:39:12;;;;;;;;;;;13.30;1.00;;;;;;5051584;28;19928;-79
2022/01/01 06:41:37;;;;;;;;;;;13.30;1.00;;;;;;5037817;28;20372;-79
2022/01/01 06:44:03;;;;;;;;;;;13.30;1.00;;;;;;5042736;28;20328;-77
2022/01/01 06:46:28;;;;;;;;;;;13.30;1.00;;;;;;5055216;28;19963;-79
2022/01/01 06:48:53;;;;;;;;;;;13.30;1.00;;;;;;5045546;28;19939;-79
2022/01/01 06:51:19;;;;;;;;;;;13.30;1.00;;;;;;5054302;28;20381;-78
2022/01/01 06:53:44;;;;;;;;;;;13.30;1.00;;;;;;5053506;28;19913;-77
2022/01/01 06:56:10;;;;;;;;;;;13.30;1.00;;;;;;5039005;28;19917;-79
2022/01/01 06:58:37;;;;;;;;;;;13.30;1.00;;;;;;5051325;28;19912;-78
2022/01/01 07:01:02;;;;;;;;;;;13.30;1.00;;;;;;5051541;28;20461;-79
2022/01/01 07:03:28;;;;;;;;;;;13.30;1.00;;;;;;5055790;28;19920;-79
2022/01/01 07:05:53;;;;;;;;;;;13.30;1.00;;;;;;5051991;28;19917;-78
2022/01/01 07:08:19;;;;;;;;;;;13.30;1.00;;;;;;5049898;28;19917;-78
2022/01/01 07:10:45;;;;;;;;;;;13.30;1.00;;;;;;5055847;28;19932;-79
2022/01/01 07:13:11;;;;;;;;;;;13.30;1.00;;;;;;5023664;28;19958;-79
2022/01/01 07:15:37;;;;;;;;;;;13.30;1.00;;;;;;5058720;28;19920;-78
2022/01/01 07:18:02;;;;;;;;;;;13.40;1.00;;;;;;5063391;28;19913;-78
2022/01/01 07:20:28;;;;;;;;;;;13.40;1.00;;;;;;5039239;28;19954;-79
2022/01/01 07:22:53;;;;;;;;;;;13.50;1.00;;;;;;5055166;28;19909;-78
2022/01/01 07:25:20;;;;;;;;;;;13.50;1.00;;;;;;5054986;28;20001;-78
2022/01/01 07:27:45;;;;;;;;;;;13.50;99.90;;;;;;5054842;28;20464;-79
2022/01/01 07:30:11;;;;;;;;;;;13.50;99.90;;;;;;5036012;28;19940;-79
2022/01/01 07:32:47;;;;;;;;;;;13.50;99.90;;;;;;5031216;28;20019;-79
2022/01/01 07:35:13;;;;;;;;;;;13.50;99.90;;;;;;5053444;28;19909;-79
2022/01/01 07:37:40;;;;;;;;;;;13.50;99.90;;;;;;5054488;28;20375;-79
2022/01/01 07:40:07;;;;;;;;;;;13.50;99.90;;;;;;5054287;28;19916;-79
2022/01/01 07:42:33;;;;;;;;;;;13.50;99.90;;;;;;5036954;28;19909;-79
2022/01/01 07:44:59;;;;;;;;;;;13.50;99.90;;;;;;5043759;28;19975;-79
2022/01/01 07:47:25;;;;;;;;;;;13.50;99.90;;;;;;5039838;28;20329;-78
2022/01/01 07:49:50;;;;;;;;;;;13.50;99.90;;;;;;5069300;28;19935;-79
2022/01/01 07:52:16;;;;;;;;;;;13.50;99.90;;;;;;5032492;28;19913;-79
2022/01/01 07:54:41;;;;;;;;;;;13.50;99.90;;;;;;5051612;28;19916;-80
2022/01/01 07:57:07;;;;;;;;;;;13.50;99.90;;;;;;5054311;28;19919;-80
2022/01/01 07:59:32;;;;;;;;;;;13.50;99.90;;;;;;5037352;28;20376;-79
2022/01/01 08:01:57;;;;;;;;;;;13.50;99.90;;;;;;5054651;28;19908;-79
2022/01/01 08:04:23;;;;;;;;;;;13.50;99.90;;;;;;5041488;28;19955;-79
2022/01/01 08:06:48;;;;;;;;;;;13.50;99.90;;;;;;5034709;28;19913;-79
2022/01/01 08:09:16;;;;;;;;;;;13.50;99.90;;;;;;5042257;28;20007;-79
2022/01/01 08:11:41;;;;;;;;;;;13.50;99.90;;;;;;5041866;28;19913;-79
2022/01/01 08:14:06;;;;;;;;;;;13.60;99.90;;;;;;5054804;28;19913;-79
2022/01/01 08:16:32;;;;;;;;;;;13.60;99.90;;;;;;5021976;28;19913;-79
2022/01/01 08:18:57;;;;;;;;;;;13.70;99.90;;;;;;5045228;28;19927;-80
2022/01/01 08:21:23;;;;;;;;;;;13.70;99.90;;;;;;5047457;28;19980;-79
2022/01/01 08:23:48;;;;;;;;;;;13.80;99.90;;;;;;5042768;28;19984;-79
2022/01/01 08:26:14;;;;;;;;;;;13.90;99.90;;;;;;5048307;28;19916;-79
2022/01/01 08:28:39;;;;;;;;;;;14.00;99.90;;;;;;5044803;28;19916;-80
2022/01/01 08:31:06;;;;;;;;;;;14.20;1.00;;;;;;5027933;28;19967;-79
2022/01/01 08:33:31;;;;;;;;;;;14.40;1.00;;;;;;5045495;28;19940;-77
2022/01/01 08:35:57;;;;;;;;;;;14.50;99.90;;;;;;5033408;28;19913;-79
2022/01/01 08:38:22;;;;;;;;;;;14.70;1.00;;;;;;5038739;28;20274;-80
2022/01/01 08:40:48;;;;;;;;;;;15.30;1.00;;;;;;5046754;28;19913;-79
2022/01/01 08:43:13;;;;;;;;;;;15.50;99.90;;;;;;5047697;28;20258;-79
2022/01/01 08:45:39;;;;;;;;;;;15.60;1.00;;;;;;5042127;28;19921;-78
2022/01/01 08:48:08;;;;;;;;;;;15.70;99.90;;;;;;5047596;28;19924;-78
2022/01/01 08:50:33;;;;;;;;;;;15.70;99.90;;;;;;5045815;28;19920;-79
2022/01/01 08:52:59;;;;;;;;;;;15.70;16.30;;;;;;5044019;28;19913;-79
2022/01/01 08:55:25;;;;;;;;;;;15.60;1.00;;;;;;5040833;28;20261;-78
2022/01/01 08:57:50;;;;;;;;;;;15.50;1.00;;;;;;5051739;28;19912;-78
2022/01/01 09:00:16;;;;;;;;;;;15.50;1.00;;;;;;5047956;28;20003;-79
2022/01/01 09:02:42;;;;;;;;;;;15.50;1.00;;;;;;5053054;28;19913;-79
2022/01/01 09:05:07;;;;;;;;;;;15.50;1.00;;;;;;5047600;28;19921;-79
2022/01/01 09:07:33;;;;;;;;;;;15.60;1.00;;;;;;5057335;28;19909;-79
2022/01/01 09:09:59;;;;;;;;;;;15.70;1.00;;;;;;5055261;28;19913;-79
2022/01/01 09:12:28;;;;;;;;;;;15.70;1.00;;;;;;5049817;28;19913;-79
2022/01/01 09:14:54;;;;;;;;;;;15.80;99.90;;;;;;5049973;28;19913;-79
2022/01/01 09:17:19;;;;;;;;;;;15.90;99.90;;;;;;5053902;28;19920;-79
2022/01/01 09:19:45;;;;;;;;;;;16.00;99.90;;;;;;5055280;28;19928;-79
2022/01/01 09:22:10;;;;;;;;;;;16.20;99.90;;;;;;5048006;28;19913;-78
2022/01/01 09:24:36;;;;;;;;;;;16.20;99.90;;;;;;5054375;28;20427;-78
2022/01/01 09:27:02;;;;;;;;;;;16.20;99.90;;;;;;5031927;28;19921;-78
2022/01/01 09:29:27;;;;;;;;;;;16.30;99.90;;;;;;5043976;28;20341;-78
2022/01/01 09:31:53;;;;;;;;;;;16.40;99.90;;;;;;5046745;28;19913;-79
2022/01/01 09:34:18;;;;;;;;;;;16.40;99.90;;;;;;5052459;28;19927;-79
2022/01/01 09:36:46;;;;;;;;;;;16.50;99.90;;;;;;5033479;28;19984;-79
2022/01/01 09:39:11;;;;;;;;;;;16.50;99.90;;;;;;5049176;28;20011;-78
2022/01/01 09:41:41;;;;;;;;;;;16.50;99.90;;;;;;5048063;28;20003;-77
2022/01/01 09:44:10;;;;;;;;;;;16.70;99.90;;;;;;5053440;28;20386;-78
2022/01/01 09:46:37;;;;;;;;;;;16.70;99.90;;;;;;5040621;28;19943;-77
2022/01/01 09:49:02;;;;;;;;;;;16.60;99.80;;;;;;5054021;28;20369;-77
2022/01/01 09:51:28;;;;;;;;;;;16.80;77.30;;;;;;5044351;28;19920;-78
2022/01/01 09:53:53;;;;;;;;;;;16.80;66.20;;;;;;5056879;28;19912;-78
2022/01/01 09:56:19;;;;;;;;;;;16.90;54.40;;;;;;5054094;28;19964;-78
2022/01/01 09:58:45;;;;;;;;;;;16.90;52.30;;;;;;5030995;28;19996;-78
2022/01/01 10:01:11;;;;;;;;;;;17.00;25.60;;;;;;5052766;28;19955;-78
2022/01/01 10:03:41;;;;;;;;;;;17.00;12.30;;;;;;5047082;28;19917;-78
2022/01/01 10:06:08;;;;;;;;;;;17.10;1.00;;;;;;5046699;28;20328;-78
2022/01/01 10:08:37;;;;;;;;;;;17.20;1.00;;;;;;5051903;28;19912;-78
2022/01/01 10:11:03;;;;;;;;;;;17.20;1.00;;;;;;5047488;28;19921;-77
2022/01/01 10:13:37;;;;;;;;;;;17.30;1.00;;;;;;5040944;28;19975;-78
2022/01/01 10:16:04;;;;;;;;;;;17.30;1.00;;;;;;5046186;28;19919;-79
2022/01/01 10:18:31;;;;;;;;;;;17.30;1.00;;;;;;5051584;28;19959;-78
2022/01/01 10:20:57;;;;;;;;;;;17.30;1.00;;;;;;5047014;28;19913;-78
2022/01/01 10:23:27;;;;;;;;;;;17.30;1.00;;;;;;5046048;28;19917;-77
2022/01/01 10:28:51;;;;;;;;;;;17.20;1.00;;;;;;5041455;28;20289;-78
2022/01/01 10:31:17;;;;;;;;;;;17.20;1.00;;;;;;5046596;28;19917;-79
2022/01/01 10:33:46;;;;;;;;;;;17.30;1.00;;;;;;5051040;28;20360;-79
2022/01/01 10:36:13;;;;;;;;;;;17.30;1.00;;;;;;5054379;28;19949;-79
2022/01/01 10:38:38;;;;;;;;;;;17.40;1.00;;;;;;5040364;28;19920;-78
2022/01/01 10:41:04;;;;;;;;;;;17.50;1.00;;;;;;5033365;28;19913;-79
2022/01/01 10:43:36;;;;;;;;;;;17.60;1.00;;;;;;5045522;28;19912;-79
2022/01/01 10:51:04;;;;;;;;;;;17.60;1.00;;;;;;5062934;28;20276;-78
2022/01/01 10:53:30;;;;;;;;;;;17.70;1.00;;;;;;5054139;28;19912;-78
2022/01/01 10:55:59;;;;;;;;;;;17.70;1.00;;;;;;5036637;28;19980;-78
2022/01/01 10:58:27;;;;;;;;;;;17.70;1.00;;;;;;5055124;28;19913;-79
2022/01/01 11:00:58;;;;;;;;;;;17.80;1.00;;;;;;5036413;28;20266;-79
2022/01/01 11:03:24;;;;;;;;;;;17.90;1.00;;;;;;5039424;28;19924;-79
2022/01/01 11:05:51;;;;;;;;;;;17.90;1.00;;;;;;5038334;28;19921;-79
2022/01/01 11:08:17;;;;;;;;;;;17.80;1.00;;;;;;5059864;28;20513;-79
2022/01/01 11:10:42;;;;;;;;;;;17.90;1.00;;;;;;5053944;28;19951;-79
2022/01/01 11:13:08;;;;;;;;;;;17.80;1.00;;;;;;5057208;28;19913;-79
2022/01/01 11:15:34;;;;;;;;;;;17.80;1.00;;;;;;5042182;28;19913;-79
2022/01/01 11:18:01;;;;;;;;;;;17.90;1.00;;;;;;5058285;28;19917;-79
2022/01/01 11:20:30;;;;;;;;;;;18.00;1.00;;;;;;5058970;28;19979;-80
2022/01/01 11:22:56;;;;;;;;;;;18.10;1.00;;;;;;5051140;28;20381;-80
2022/01/01 11:25:21;;;;;;;;;;;18.20;1.00;;;;;;5064264;28;19935;-79
2022/01/01 11:27:47;;;;;;;;;;;18.30;1.00;;;;;;5071845;28;19959;-79
2022/01/01 11:30:14;;;;;;;;;;;18.40;1.00;;;;;;5057657;28;19916;-79
2022/01/01 11:32:50;;;;;;;;;;;18.60;1.00;;;;;;5040050;28;19909;-79
2022/01/01 11:35:21;;;;;;;;;;;19.10;1.00;;;;;;5058824;28;19916;-79
2022/01/01 11:38:03;;;;;;;;;;;20.20;1.00;;;;;;5061200;28;19909;-79
2022/01/01 11:40:39;;;;;;;;;;;21.30;1.00;;;;;;5042541;28;19909;-79
2022/01/01 11:43:04;;;;;;;;;;;22.20;1.00;;;;;;5060390;28;19981;-80
2022/01/01 11:45:44;;;;;;;;;;;22.80;1.00;;;;;;5061989;28;19916;-80
2022/01/01 11:48:29;;;;;;;;;;;23.10;1.00;;;;;;5045397;28;19916;-80
2022/01/01 11:50:54;;;;;;;;;;;23.30;1.00;;;;;;5063685;28;19908;-80
2022/01/01 11:53:30;;;;;;;;;;;23.70;1.00;;;;;;5062889;28;19939;-80
2022/01/01 11:56:12;;;;;;;;;;;24.20;1.00;;;;;;5046643;28;19913;-80
2022/01/01 11:58:45;;;;;;;;;;;24.70;1.00;;;;;;5063688;28;19935;-80
2022/01/01 12:01:10;;;;;;;;;;;25.10;1.00;;;;;;5073699;28;19913;-81
2022/01/01 12:03:47;;;;;;;;;;;25.10;1.00;;;;;;5046033;28;19919;-80
2022/01/01 12:06:12;;;;;;;;;;;25.00;1.00;;;;;;5050401;28;19919;-80
2022/01/01 12:08:42;;;;;;;;;;;24.50;1.00;;;;;;5066864;28;19956;-80
2022/01/01 12:11:08;;;;;;;;;;;24.30;1.00;;;;;;5049994;28;19909;-80
2022/01/01 12:13:38;;;;;;;;;;;24.30;1.00;;;;;;5050077;28;19924;-80
2022/01/01 12:16:20;;;;;;;;;;;24.40;1.00;;;;;;5050995;28;19920;-80
2022/01/01 12:18:45;;;;;;;;;;;24.40;1.00;;;;;;5061591;28;19909;-80
2022/01/01 12:21:18;;;;;;;;;;;24.60;1.00;;;;;;5058332;28;19948;-80
2022/01/01 12:23:46;;;;;;;;;;;25.10;1.00;;;;;;5067574;28;19928;-81
2022/01/01 12:26:14;;;;;;;;;;;25.60;1.00;;;;;;5050292;28;19923;-81
2022/01/01 12:28:42;;;;;;;;;;;26.00;1.00;;;;;;5051079;28;19916;-80
2022/01/01 12:31:20;;;;;;;;;;;26.40;1.00;;;;;;5050921;28;20332;-81
2022/01/01 12:33:46;;;;;;;;;;;26.90;1.00;;;;;;5053468;28;20007;-80
2022/01/01 12:36:13;;;;;;;;;;;27.10;1.00;;;;;;5055054;28;20028;-80
2022/01/01 12:38:41;;;;;;;;;;;27.10;1.00;;;;;;5047658;28;19915;-80
2022/01/01 12:41:08;;;;;;;;;;;27.30;1.00;;;;;;5063568;28;19948;-81
2022/01/01 12:43:43;;;;;;;;;;;27.20;1.00;;;;;;5046054;28;19932;-80
2022/01/01 12:46:08;;;;;;;;;;;26.40;1.00;;;;;;5047867;28;20308;-80
2022/01/01 12:48:34;;;;;;;;;;;25.90;1.00;;;;;;5046915;28;19943;-80
2022/01/01 12:51:01;;;;;;;;;;;25.50;1.00;;;;;;5067052;28;19916;-80
2022/01/01 12:53:27;;;;;;;;;;;24.80;1.00;;;;;;5065355;28;19908;-80
2022/01/01 12:56:05;;;;;;;;;;;24.20;1.00;;;;;;5066534;28;19959;-80
2022/01/01 12:58:32;;;;;;;;;;;23.90;1.00;;;;;;5047512;28;19932;-80
2022/01/01 13:01:06;;;;;;;;;;;23.50;1.00;;;;;;5063982;28;19909;-80
2022/01/01 13:03:32;;;;;;;;;;;23.20;1.00;;;;;;5047033;28;20048;-80
2022/01/01 13:05:57;;;;;;;;;;;23.10;1.00;;;;;;5065906;28;19919;-80
2022/01/01 13:08:23;;;;;;;;;;;23.00;1.00;;;;;;5048381;28;19908;-80
2022/01/01 13:10:48;;;;;;;;;;;22.70;1.00;;;;;;5066273;28;20366;-80
2022/01/01 13:13:17;;;;;;;;;;;22.60;1.00;;;;;;5065745;28;19962;-80
2022/01/01 13:15:43;;;;;;;;;;;22.50;1.00;;;;;;5046473;28;19935;-80
2022/01/01 13:18:09;;;;;;;;;;;22.50;1.00;;;;;;5047630;28;19909;-80
2022/01/01 13:20:35;;;;;;;;;;;22.30;1.00;;;;;;5047908;28;19919;-80
2022/01/01 13:23:04;;;;;;;;;;;22.20;1.00;;;;;;5065302;28;20596;-80
2022/01/01 13:25:29;;;;;;;;;;;22.10;1.00;;;;;;5047705;28;19916;-78
2022/01/01 13:27:55;;;;;;;;;;;21.60;1.00;;;;;;5048663;28;19944;-79
2022/01/01 13:30:22;;;;;;;;;;;21.00;1.00;;;;;;5065797;28;19908;-80
2022/01/01 13:32:48;;;;;;;;;;;20.50;1.00;;;;;;5066014;28;19915;-80
2022/01/01 13:35:22;;;;;;;;;;;20.30;1.00;;;;;;5048311;28;19984;-80
2022/01/01 13:37:49;;;;;;;;;;;20.00;1.00;;;;;;5046895;28;19909;-79
2022/01/01 13:40:14;;;;;;;;;;;19.50;1.00;;;;;;5048215;28;19920;-80
2022/01/01 13:42:40;;;;;;;;;;;19.40;1.00;;;;;;5047692;28;20365;-80
2022/01/01 13:45:05;;;;;;;;;;;19.20;1.00;;;;;;5065451;28;19996;-80
2022/01/01 13:47:33;;;;;;;;;;;19.20;1.00;;;;;;5047564;28;19917;-80
2022/01/01 13:50:00;;;;;;;;;;;19.10;1.00;;;;;;5076072;28;20018;-79
2022/01/01 13:52:27;;;;;;;;;;;19.20;1.00;;;;;;5065816;28;19908;-80
2022/01/01 13:54:57;;;;;;;;;;;19.10;1.00;;;;;;5046215;28;19917;-79
2022/01/01 13:57:23;;;;;;;;;;;19.00;1.00;;;;;;5058541;28;19913;-79
2022/01/01 13:59:55;;;;;;;;;;;18.70;1.00;;;;;;5065851;28;19996;-80
2022/01/01 14:02:22;;;;;;;;;;;18.50;1.00;;;;;;5065717;28;19975;-80
2022/01/01 14:04:47;;;;;;;;;;;18.30;1.00;;;;;;5066506;28;19913;-80
2022/01/01 14:07:14;;;;;;;;;;;18.30;1.00;;;;;;5048468;28;19915;-79
2022/01/01 14:09:55;;;;;;;;;;;18.10;1.00;;;;;;5048361;28;19908;-80
2022/01/01 14:12:21;;;;;;;;;;;17.90;1.00;;;;;;5048051;28;19916;-80
2022/01/01 14:14:46;;;;;;;;;;;17.70;1.00;;;;;;5064449;28;19913;-80
2022/01/01 14:17:12;;;;;;;;;;;17.60;1.00;;;;;;5046355;28;19962;-80
2022/01/01 14:19:37;;;;;;;;;;;17.40;1.00;;;;;;5045912;28;19976;-80
2022/01/01 14:22:10;;;;;;;;;;;17.00;1.00;;;;;;5045674;28;20432;-80
2022/01/01 14:24:47;;;;;;;;;;;16.80;1.00;;;;;;5063041;28;19920;-80
2022/01/01 14:27:13;;;;;;;;;;;16.80;1.00;;;;;;5059578;28;20023;-80
2022/01/01 14:29:38;;;;;;;;;;;16.80;1.00;;;;;;5059938;28;19952;-80
2022/01/01 14:32:04;;;;;;;;;;;16.80;1.00;;;;;;5042320;28;20320;-80
2022/01/01 14:34:29;;;;;;;;;;;16.70;1.00;;;;;;5042182;28;20328;-81
2022/01/01 14:36:55;;;;;;;;;;;16.50;1.00;;;;;;5047503;28;20341;-80